QTR263 OTHH-EPWA
Flight info
| Callsign | QTR263 |
|---|---|
| Flight time | N/A |
| Altitude | 28000 |
| Route | DATRI L564 BAT/N0524F290 L564 MIGMA/N0517F280 M628 AMBAG/N0494F380 M321 KSA T503 OVANO L768 KUMLO/N0487F400 L768 FIRAS R655 KTN R785 NIKAS L619 VESAR UB545 OKLAM UL619 OSVEL UQ23 OSDAN UQ26 TUDBU DCT UPAMA DCT RUPUG DCT NARKA DCT KELEL/N0492F410 DCT ORTEB/N0493F400 DCT KONZI DCT LOGDA |
| Aircraft | B788/H-SDE1E2E3FGHIJ2J3J4J5M1RWXY/LB1D1 |
Departure
| Time | 2026-05-07 22:37 |
|---|---|
| Airport | Hamad International Airport (OTHH) |
Arrival
| Time | N/A |
|---|---|
| Airport | Warsaw Chopin Airport (EPWA) |
| Time | Latitude | Longitude | Altitude | Speed | Heading |
|---|---|---|---|---|---|
| 2026-05-07 22:00 | 25.25917 | 51.61005 | 28 ft | 0 kts | 358° |
| 2026-05-07 22:29 | 25.25909 | 51.61005 | 27 ft | 4 kts | 358° |
| 2026-05-07 22:29 | 25.25884 | 51.61006 | 25 ft | 4 kts | 355° |
| 2026-05-07 22:30 | 25.25864 | 51.61014 | 25 ft | 4 kts | 313° |
| 2026-05-07 22:30 | 25.25857 | 51.61036 | 27 ft | 4 kts | 272° |
| 2026-05-07 22:30 | 25.25860 | 51.61065 | 27 ft | 4 kts | 256° |
| 2026-05-07 22:30 | 25.25868 | 51.61091 | 27 ft | 1 kts | 248° |
| 2026-05-07 22:32 | 25.25868 | 51.61092 | 27 ft | 0 kts | 248° |
| 2026-05-07 22:34 | 25.25864 | 51.61081 | 26 ft | 4 kts | 249° |
| 2026-05-07 22:34 | 25.25850 | 51.61040 | 26 ft | 8 kts | 249° |
| 2026-05-07 22:34 | 25.25826 | 51.60969 | 28 ft | 12 kts | 249° |
| 2026-05-07 22:34 | 25.25786 | 51.60890 | 28 ft | 11 kts | 214° |
| 2026-05-07 22:35 | 25.25715 | 51.60891 | 27 ft | 10 kts | 171° |
| 2026-05-07 22:35 | 25.25664 | 51.60860 | 26 ft | 8 kts | 236° |
| 2026-05-07 22:35 | 25.25637 | 51.60796 | 27 ft | 10 kts | 247° |
| 2026-05-07 22:35 | 25.25612 | 51.60727 | 26 ft | 10 kts | 249° |
| 2026-05-07 22:36 | 25.25584 | 51.60645 | 28 ft | 13 kts | 252° |
| 2026-05-07 22:36 | 25.25580 | 51.60544 | 21 ft | 13 kts | 298° |
| 2026-05-07 22:36 | 25.25644 | 51.60503 | 23 ft | 10 kts | 339° |
| 2026-05-07 22:36 | 25.25745 | 51.60460 | 23 ft | 28 kts | 339° |
| 2026-05-07 22:37 | 25.26118 | 51.60297 | 30 ft | 89 kts | 338° |
| 2026-05-07 22:37 | 25.26885 | 51.59957 | 21 ft | 146 kts | 338° |
| 2026-05-07 22:37 | 25.27962 | 51.59471 | 272 ft | 180 kts | 333° |
| 2026-05-07 22:37 | 25.29172 | 51.58871 | 909 ft | 203 kts | 337° |
| 2026-05-07 22:38 | 25.30549 | 51.58311 | 1743 ft | 212 kts | 342° |
| 2026-05-07 22:38 | 25.32022 | 51.57707 | 2318 ft | 240 kts | 339° |
| 2026-05-07 22:38 | 25.33657 | 51.56969 | 2866 ft | 260 kts | 338° |
| 2026-05-07 22:38 | 25.35353 | 51.56202 | 3703 ft | 270 kts | 339° |
| 2026-05-07 22:39 | 25.37137 | 51.55412 | 3993 ft | 280 kts | 339° |
| 2026-05-07 22:39 | 25.38921 | 51.54625 | 4766 ft | 272 kts | 339° |
| 2026-05-07 22:39 | 25.40689 | 51.53841 | 5717 ft | 275 kts | 339° |
| 2026-05-07 22:39 | 25.42419 | 51.53072 | 6577 ft | 282 kts | 339° |
| 2026-05-07 22:40 | 25.44280 | 51.52246 | 6953 ft | 292 kts | 339° |
| 2026-05-07 22:40 | 25.46164 | 51.51322 | 6969 ft | 291 kts | 328° |
| 2026-05-07 22:40 | 25.47580 | 51.49762 | 6975 ft | 289 kts | 303° |
| 2026-05-07 22:40 | 25.48294 | 51.47729 | 6995 ft | 289 kts | 278° |
| 2026-05-07 22:41 | 25.48323 | 51.45501 | 6990 ft | 290 kts | 268° |
| 2026-05-07 22:41 | 25.48222 | 51.43267 | 6990 ft | 290 kts | 267° |
| 2026-05-07 22:41 | 25.48109 | 51.41035 | 6990 ft | 290 kts | 268° |
| 2026-05-07 22:41 | 25.48011 | 51.38806 | 6991 ft | 290 kts | 268° |
| 2026-05-07 22:42 | 25.47918 | 51.36573 | 6994 ft | 291 kts | 268° |
| 2026-05-07 22:42 | 25.47821 | 51.34342 | 6996 ft | 290 kts | 268° |
| 2026-05-07 22:42 | 25.47721 | 51.32109 | 6999 ft | 290 kts | 268° |
| 2026-05-07 22:42 | 25.47616 | 51.29878 | 7001 ft | 290 kts | 266° |
| 2026-05-07 22:43 | 25.47026 | 51.27757 | 7134 ft | 294 kts | 237° |
| 2026-05-07 22:43 | 25.45653 | 51.26133 | 8150 ft | 289 kts | 212° |
| 2026-05-07 22:43 | 25.43772 | 51.25350 | 9059 ft | 293 kts | 185° |
| 2026-05-07 22:43 | 25.41720 | 51.25292 | 9913 ft | 297 kts | 179° |
| 2026-05-07 22:44 | 25.39608 | 51.25323 | 10402 ft | 316 kts | 178° |
| 2026-05-07 22:44 | 25.38109 | 51.25358 | 10534 ft | 334 kts | 178° |
| 2026-05-07 22:44 | 25.35689 | 51.25400 | 10673 ft | 362 kts | 179° |
| 2026-05-07 22:44 | 25.33080 | 51.25426 | 10907 ft | 383 kts | 179° |
| 2026-05-07 22:45 | 25.30412 | 51.25452 | 11744 ft | 384 kts | 179° |
| 2026-05-07 22:45 | 25.27731 | 51.25528 | 12499 ft | 388 kts | 173° |
| 2026-05-07 22:45 | 25.25083 | 51.26287 | 13303 ft | 389 kts | 158° |
| 2026-05-07 22:45 | 25.22541 | 51.27369 | 14041 ft | 393 kts | 157° |
| 2026-05-07 22:46 | 25.19991 | 51.28481 | 14783 ft | 396 kts | 158° |
| 2026-05-07 22:46 | 25.17441 | 51.29560 | 15513 ft | 399 kts | 159° |
| 2026-05-07 22:46 | 25.14825 | 51.30644 | 16215 ft | 403 kts | 159° |
| 2026-05-07 22:46 | 25.12201 | 51.31746 | 16903 ft | 406 kts | 159° |
| 2026-05-07 22:47 | 25.09551 | 51.32806 | 17563 ft | 410 kts | 165° |
| 2026-05-07 22:47 | 25.06731 | 51.33370 | 18204 ft | 413 kts | 172° |
| 2026-05-07 22:47 | 25.03867 | 51.33750 | 18773 ft | 416 kts | 174° |
| 2026-05-07 22:47 | 25.00980 | 51.34092 | 19338 ft | 419 kts | 174° |
| 2026-05-07 22:48 | 24.98070 | 51.34503 | 19867 ft | 423 kts | 173° |
| 2026-05-07 22:48 | 24.95138 | 51.34948 | 20398 ft | 427 kts | 173° |
| 2026-05-07 22:48 | 24.92174 | 51.35367 | 20909 ft | 431 kts | 174° |
| 2026-05-07 22:48 | 24.89179 | 51.35771 | 21425 ft | 435 kts | 174° |
| 2026-05-07 22:49 | 24.86161 | 51.36189 | 21939 ft | 438 kts | 174° |
| 2026-05-07 22:49 | 24.83125 | 51.36622 | 22442 ft | 442 kts | 174° |
| 2026-05-07 22:49 | 24.80063 | 51.37055 | 22928 ft | 444 kts | 174° |
| 2026-05-07 22:49 | 24.76984 | 51.37482 | 23399 ft | 448 kts | 175° |
| 2026-05-07 22:50 | 24.73879 | 51.37913 | 23791 ft | 451 kts | 175° |
| 2026-05-07 22:50 | 24.70760 | 51.38351 | 24189 ft | 453 kts | 175° |
| 2026-05-07 22:50 | 24.67631 | 51.38790 | 24636 ft | 453 kts | 175° |
| 2026-05-07 22:50 | 24.64502 | 51.39227 | 25185 ft | 452 kts | 175° |
| 2026-05-07 22:51 | 24.61427 | 51.39655 | 25718 ft | 450 kts | 175° |
| 2026-05-07 22:51 | 24.58327 | 51.40087 | 26253 ft | 449 kts | 175° |
| 2026-05-07 22:51 | 24.55189 | 51.40525 | 26808 ft | 448 kts | 176° |
| 2026-05-07 22:51 | 24.52105 | 51.40955 | 27342 ft | 446 kts | 176° |
| 2026-05-07 22:52 | 24.49022 | 51.41384 | 27807 ft | 447 kts | 176° |
| 2026-05-07 22:52 | 24.45906 | 51.41816 | 27829 ft | 455 kts | 176° |
| 2026-05-07 22:52 | 24.42815 | 51.42247 | 27830 ft | 451 kts | 176° |
| 2026-05-07 22:52 | 24.39710 | 51.42682 | 27827 ft | 448 kts | 176° |
| 2026-05-07 22:53 | 24.36622 | 51.43111 | 27827 ft | 447 kts | 176° |
| 2026-05-07 22:53 | 24.33535 | 51.43537 | 27830 ft | 447 kts | 176° |
| 2026-05-07 22:53 | 24.30447 | 51.43966 | 27826 ft | 447 kts | 176° |
| 2026-05-07 22:53 | 24.27358 | 51.44396 | 27826 ft | 447 kts | 176° |
| 2026-05-07 22:54 | 24.24268 | 51.44825 | 27826 ft | 447 kts | 176° |
| 2026-05-07 22:54 | 24.21175 | 51.45191 | 27836 ft | 444 kts | 182° |
| 2026-05-07 22:54 | 24.18089 | 51.45202 | 27841 ft | 444 kts | 183° |
| 2026-05-07 22:54 | 24.15010 | 51.45072 | 27860 ft | 441 kts | 192° |
| 2026-05-07 22:55 | 24.12053 | 51.44242 | 27867 ft | 437 kts | 204° |
| 2026-05-07 22:55 | 24.09344 | 51.42764 | 27862 ft | 435 kts | 217° |
| 2026-05-07 22:55 | 24.07038 | 51.40647 | 27872 ft | 432 kts | 229° |
| 2026-05-07 22:55 | 24.05189 | 51.38061 | 27852 ft | 432 kts | 238° |
| 2026-05-07 22:56 | 24.03759 | 51.35171 | 27848 ft | 432 kts | 246° |
| 2026-05-07 22:56 | 24.02584 | 51.32194 | 27850 ft | 432 kts | 246° |
| 2026-05-07 22:56 | 24.01343 | 51.29200 | 27850 ft | 432 kts | 244° |
| 2026-05-07 22:56 | 24.00015 | 51.26251 | 27845 ft | 432 kts | 244° |
| 2026-05-07 22:57 | 23.98700 | 51.23299 | 27846 ft | 432 kts | 245° |
| 2026-05-07 22:57 | 23.97433 | 51.20324 | 27846 ft | 432 kts | 245° |
| 2026-05-07 22:57 | 23.96161 | 51.17340 | 27847 ft | 433 kts | 245° |
| 2026-05-07 22:57 | 23.94866 | 51.14374 | 27848 ft | 433 kts | 244° |
| 2026-05-07 22:58 | 23.93565 | 51.11406 | 27846 ft | 432 kts | 244° |
| 2026-05-07 22:58 | 23.92275 | 51.08433 | 27843 ft | 432 kts | 245° |
| 2026-05-07 22:58 | 23.90991 | 51.05463 | 27848 ft | 432 kts | 244° |
| 2026-05-07 22:58 | 23.89700 | 51.02496 | 27846 ft | 432 kts | 244° |
| 2026-05-07 22:59 | 23.88404 | 50.99526 | 27848 ft | 432 kts | 244° |
| 2026-05-07 22:59 | 23.87109 | 50.96555 | 27849 ft | 432 kts | 244° |
| 2026-05-07 22:59 | 23.86049 | 50.93487 | 27867 ft | 432 kts | 257° |
| 2026-05-07 22:59 | 23.85613 | 50.90235 | 27854 ft | 434 kts | 266° |
| 2026-05-07 23:00 | 23.85693 | 50.87006 | 27859 ft | 427 kts | 276° |
| 2026-05-07 23:00 | 23.86277 | 50.83833 | 27856 ft | 428 kts | 285° |
| 2026-05-07 23:00 | 23.87177 | 50.80703 | 27853 ft | 434 kts | 285° |
| 2026-05-07 23:00 | 23.88086 | 50.77541 | 27848 ft | 437 kts | 284° |
| 2026-05-07 23:01 | 23.88982 | 50.74361 | 27852 ft | 438 kts | 284° |
| 2026-05-07 23:01 | 23.89879 | 50.71169 | 27856 ft | 438 kts | 284° |
| 2026-05-07 23:01 | 23.90782 | 50.67986 | 27853 ft | 438 kts | 284° |
| 2026-05-07 23:01 | 23.91686 | 50.64802 | 27854 ft | 441 kts | 284° |
| 2026-05-07 23:02 | 23.92599 | 50.61562 | 27875 ft | 450 kts | 284° |
| 2026-05-07 23:02 | 23.93521 | 50.58290 | 28023 ft | 449 kts | 284° |
| 2026-05-07 23:02 | 23.94445 | 50.55022 | 28151 ft | 449 kts | 284° |
| 2026-05-07 23:02 | 23.95365 | 50.51756 | 28283 ft | 450 kts | 284° |
| 2026-05-07 23:03 | 23.96272 | 50.48532 | 28412 ft | 450 kts | 284° |
| 2026-05-07 23:03 | 23.97192 | 50.45259 | 28546 ft | 451 kts | 284° |
| 2026-05-07 23:03 | 23.98126 | 50.41937 | 28680 ft | 451 kts | 284° |
| 2026-05-07 23:03 | 23.99036 | 50.38695 | 28809 ft | 452 kts | 284° |
| 2026-05-07 23:04 | 23.99960 | 50.35401 | 28945 ft | 452 kts | 284° |
| 2026-05-07 23:04 | 24.00882 | 50.32111 | 29077 ft | 453 kts | 284° |
| 2026-05-07 23:04 | 24.01806 | 50.28810 | 29214 ft | 454 kts | 284° |
| 2026-05-07 23:04 | 24.02731 | 50.25502 | 29338 ft | 455 kts | 284° |
| 2026-05-07 23:05 | 24.03657 | 50.22188 | 29482 ft | 455 kts | 284° |
| 2026-05-07 23:05 | 24.04584 | 50.18868 | 29620 ft | 456 kts | 284° |
| 2026-05-07 23:05 | 24.05511 | 50.15547 | 29755 ft | 457 kts | 284° |
| 2026-05-07 23:05 | 24.06437 | 50.12223 | 29897 ft | 458 kts | 284° |
| 2026-05-07 23:06 | 24.07366 | 50.08886 | 30013 ft | 458 kts | 284° |
| 2026-05-07 23:06 | 24.08296 | 50.05546 | 30128 ft | 458 kts | 283° |
| 2026-05-07 23:06 | 24.09212 | 50.02249 | 30305 ft | 457 kts | 283° |
| 2026-05-07 23:06 | 24.10136 | 49.98920 | 30543 ft | 459 kts | 283° |
| 2026-05-07 23:07 | 24.11065 | 49.95569 | 30775 ft | 461 kts | 283° |
| 2026-05-07 23:07 | 24.11997 | 49.92203 | 31013 ft | 463 kts | 283° |
| 2026-05-07 23:07 | 24.12935 | 49.88821 | 31248 ft | 464 kts | 283° |
| 2026-05-07 23:07 | 24.13874 | 49.85426 | 31491 ft | 465 kts | 283° |
| 2026-05-07 23:08 | 24.14812 | 49.82033 | 31732 ft | 466 kts | 283° |
| 2026-05-07 23:08 | 24.15750 | 49.78632 | 31975 ft | 468 kts | 283° |
| 2026-05-07 23:08 | 24.16691 | 49.75220 | 32219 ft | 469 kts | 283° |
| 2026-05-07 23:08 | 24.17634 | 49.71800 | 32466 ft | 470 kts | 283° |
| 2026-05-07 23:09 | 24.18578 | 49.68371 | 32716 ft | 471 kts | 283° |
| 2026-05-07 23:09 | 24.19526 | 49.64926 | 32973 ft | 472 kts | 283° |
| 2026-05-07 23:09 | 24.20472 | 49.61480 | 33218 ft | 472 kts | 283° |
| 2026-05-07 23:09 | 24.21417 | 49.58041 | 33467 ft | 472 kts | 283° |
| 2026-05-07 23:10 | 24.22362 | 49.54596 | 33733 ft | 471 kts | 283° |
| 2026-05-07 23:10 | 24.23312 | 49.51130 | 33973 ft | 470 kts | 283° |
| 2026-05-07 23:10 | 24.24250 | 49.47702 | 34197 ft | 468 kts | 283° |
| 2026-05-07 23:10 | 24.25184 | 49.44285 | 34425 ft | 467 kts | 283° |
| 2026-05-07 23:11 | 24.26117 | 49.40870 | 34646 ft | 467 kts | 283° |
| 2026-05-07 23:11 | 24.27047 | 49.37461 | 34873 ft | 466 kts | 283° |
| 2026-05-07 23:11 | 24.27974 | 49.34064 | 35099 ft | 465 kts | 283° |
| 2026-05-07 23:11 | 24.28898 | 49.30671 | 35332 ft | 464 kts | 282° |
| 2026-05-07 23:12 | 24.29821 | 49.27280 | 35565 ft | 463 kts | 282° |
| 2026-05-07 23:12 | 24.30741 | 49.23894 | 35801 ft | 462 kts | 282° |
| 2026-05-07 23:12 | 24.31660 | 49.20514 | 36036 ft | 461 kts | 282° |
| 2026-05-07 23:12 | 24.32573 | 49.17149 | 36282 ft | 460 kts | 282° |
| 2026-05-07 23:13 | 24.33487 | 49.13777 | 36521 ft | 459 kts | 282° |
| 2026-05-07 23:13 | 24.34384 | 49.10463 | 36755 ft | 458 kts | 282° |
| 2026-05-07 23:13 | 24.35293 | 49.07111 | 37056 ft | 458 kts | 281° |
| 2026-05-07 23:13 | 24.36196 | 49.03765 | 37304 ft | 457 kts | 281° |
| 2026-05-07 23:14 | 24.37098 | 49.00419 | 37559 ft | 457 kts | 280° |
| 2026-05-07 23:14 | 24.37999 | 48.97082 | 37820 ft | 456 kts | 280° |
| 2026-05-07 23:14 | 24.38902 | 48.93731 | 37889 ft | 459 kts | 280° |
| 2026-05-07 23:15 | 24.40709 | 48.87019 | 37891 ft | 460 kts | 280° |
| 2026-05-07 23:15 | 24.42525 | 48.80257 | 37896 ft | 464 kts | 280° |
| 2026-05-07 23:16 | 24.44354 | 48.73435 | 37904 ft | 467 kts | 280° |
| 2026-05-07 23:16 | 24.46186 | 48.66597 | 37920 ft | 467 kts | 280° |
| 2026-05-07 23:17 | 24.48011 | 48.59758 | 37923 ft | 466 kts | 280° |
| 2026-05-07 23:17 | 24.49833 | 48.52925 | 37932 ft | 466 kts | 279° |
| 2026-05-07 23:18 | 24.51650 | 48.46093 | 37938 ft | 466 kts | 279° |
| 2026-05-07 23:18 | 24.53465 | 48.39258 | 37939 ft | 466 kts | 279° |
| 2026-05-07 23:19 | 24.55275 | 48.32425 | 37941 ft | 465 kts | 279° |
| 2026-05-07 23:19 | 24.57078 | 48.25605 | 37950 ft | 465 kts | 279° |
| 2026-05-07 23:20 | 24.58878 | 48.18788 | 37954 ft | 464 kts | 279° |
| 2026-05-07 23:20 | 24.60675 | 48.11964 | 37960 ft | 464 kts | 279° |
| 2026-05-07 23:21 | 24.62466 | 48.05147 | 37962 ft | 464 kts | 279° |
| 2026-05-07 23:21 | 24.64254 | 47.98332 | 37967 ft | 464 kts | 279° |
| 2026-05-07 23:22 | 24.66038 | 47.91518 | 37970 ft | 463 kts | 279° |
| 2026-05-07 23:22 | 24.67805 | 47.84755 | 37974 ft | 462 kts | 279° |
| 2026-05-07 23:23 | 24.69578 | 47.77954 | 37979 ft | 462 kts | 279° |
| 2026-05-07 23:23 | 24.71346 | 47.71161 | 37976 ft | 462 kts | 279° |
| 2026-05-07 23:24 | 24.72818 | 47.65495 | 37983 ft | 462 kts | 279° |
| 2026-05-07 23:24 | 24.74588 | 47.58669 | 37987 ft | 462 kts | 279° |
| 2026-05-07 23:25 | 24.76348 | 47.51866 | 37990 ft | 461 kts | 279° |
| 2026-05-07 23:25 | 24.78101 | 47.45078 | 37998 ft | 460 kts | 279° |
| 2026-05-07 23:26 | 24.79846 | 47.38304 | 38005 ft | 460 kts | 279° |
| 2026-05-07 23:26 | 24.81589 | 47.31528 | 38007 ft | 459 kts | 279° |
| 2026-05-07 23:27 | 24.84201 | 47.21344 | 38000 ft | 458 kts | 278° |
| 2026-05-07 23:27 | 24.85932 | 47.14579 | 38012 ft | 458 kts | 278° |
| 2026-05-07 23:28 | 24.87460 | 47.08596 | 38005 ft | 458 kts | 278° |
| 2026-05-07 23:28 | 24.89183 | 47.01839 | 38016 ft | 457 kts | 278° |
| 2026-05-07 23:29 | 24.90887 | 46.95137 | 38024 ft | 457 kts | 278° |
| 2026-05-07 23:29 | 24.92599 | 46.88395 | 38026 ft | 456 kts | 278° |
| 2026-05-07 23:30 | 24.94303 | 46.81665 | 38030 ft | 455 kts | 278° |
| 2026-05-07 23:30 | 24.95999 | 46.74958 | 38032 ft | 454 kts | 278° |
| 2026-05-07 23:31 | 24.98294 | 46.68403 | 38042 ft | 468 kts | 292° |
| 2026-05-07 23:31 | 25.02285 | 46.62578 | 38044 ft | 487 kts | 308° |
| 2026-05-07 23:32 | 25.07273 | 46.57472 | 38036 ft | 488 kts | 308° |
| 2026-05-07 23:32 | 25.12251 | 46.52384 | 38038 ft | 487 kts | 308° |
| 2026-05-07 23:33 | 25.17221 | 46.47302 | 38039 ft | 486 kts | 308° |
| 2026-05-07 23:33 | 25.22181 | 46.42223 | 38039 ft | 486 kts | 308° |
| 2026-05-07 23:34 | 25.27105 | 46.37174 | 38038 ft | 485 kts | 308° |
| 2026-05-07 23:34 | 25.32052 | 46.32097 | 38039 ft | 484 kts | 307° |
| 2026-05-07 23:35 | 25.36988 | 46.27025 | 38038 ft | 483 kts | 307° |
| 2026-05-07 23:35 | 25.41913 | 46.21958 | 38042 ft | 483 kts | 307° |
| 2026-05-07 23:36 | 25.46821 | 46.16904 | 38035 ft | 482 kts | 307° |
| 2026-05-07 23:36 | 25.51731 | 46.11840 | 38035 ft | 481 kts | 307° |
| 2026-05-07 23:37 | 25.56633 | 46.06779 | 38031 ft | 482 kts | 307° |
| 2026-05-07 23:37 | 25.61538 | 46.01710 | 38027 ft | 482 kts | 307° |
| 2026-05-07 23:38 | 25.66437 | 45.96640 | 38026 ft | 482 kts | 307° |
| 2026-05-07 23:38 | 25.71307 | 45.91594 | 38024 ft | 482 kts | 307° |
| 2026-05-07 23:39 | 25.76207 | 45.86511 | 38019 ft | 482 kts | 307° |
| 2026-05-07 23:39 | 25.81107 | 45.81422 | 38016 ft | 482 kts | 307° |
| 2026-05-07 23:40 | 25.86005 | 45.76330 | 38013 ft | 482 kts | 307° |
| 2026-05-07 23:40 | 25.90893 | 45.71240 | 38012 ft | 481 kts | 306° |
| 2026-05-07 23:41 | 25.95775 | 45.66150 | 38007 ft | 481 kts | 306° |
| 2026-05-07 23:41 | 26.00646 | 45.61066 | 38005 ft | 479 kts | 306° |
| 2026-05-07 23:42 | 26.05496 | 45.55997 | 37998 ft | 478 kts | 306° |
| 2026-05-07 23:42 | 26.10344 | 45.50924 | 37988 ft | 477 kts | 306° |
| 2026-05-07 23:43 | 26.15145 | 45.45894 | 37987 ft | 477 kts | 306° |
| 2026-05-07 23:43 | 26.19977 | 45.40827 | 38001 ft | 477 kts | 306° |
| 2026-05-07 23:44 | 26.24805 | 45.35760 | 37988 ft | 477 kts | 306° |
| 2026-05-07 23:44 | 26.29638 | 45.30682 | 37987 ft | 478 kts | 306° |
| 2026-05-07 23:45 | 26.34483 | 45.25599 | 37987 ft | 478 kts | 306° |
| 2026-05-07 23:45 | 26.39339 | 45.20509 | 37990 ft | 479 kts | 306° |
| 2026-05-07 23:46 | 26.44170 | 45.15432 | 37987 ft | 480 kts | 306° |
| 2026-05-07 23:46 | 26.49047 | 45.10306 | 37980 ft | 482 kts | 306° |
| 2026-05-07 23:47 | 26.53925 | 45.05169 | 37980 ft | 482 kts | 306° |
| 2026-05-07 23:47 | 26.58823 | 45.00006 | 37979 ft | 483 kts | 306° |
| 2026-05-07 23:48 | 26.63704 | 44.94858 | 37983 ft | 483 kts | 306° |
| 2026-05-07 23:48 | 26.68594 | 44.89695 | 37971 ft | 484 kts | 305° |
| 2026-05-07 23:49 | 26.73489 | 44.84517 | 37976 ft | 483 kts | 305° |
| 2026-05-07 23:49 | 26.78373 | 44.79346 | 37963 ft | 483 kts | 305° |
| 2026-05-07 23:50 | 26.83224 | 44.74190 | 37967 ft | 483 kts | 305° |
| 2026-05-07 23:50 | 26.88102 | 44.69004 | 37970 ft | 483 kts | 305° |
| 2026-05-07 23:51 | 26.92980 | 44.63810 | 37980 ft | 483 kts | 305° |
| 2026-05-07 23:51 | 26.97854 | 44.58614 | 37974 ft | 483 kts | 305° |
| 2026-05-07 23:52 | 27.02722 | 44.53414 | 37967 ft | 483 kts | 304° |
| 2026-05-07 23:52 | 27.07576 | 44.48216 | 37977 ft | 482 kts | 304° |
| 2026-05-07 23:53 | 27.12439 | 44.43005 | 37971 ft | 484 kts | 304° |
| 2026-05-07 23:53 | 27.17311 | 44.37777 | 37979 ft | 485 kts | 304° |
| 2026-05-07 23:54 | 27.22235 | 44.32499 | 37981 ft | 486 kts | 304° |
| 2026-05-07 23:54 | 27.27122 | 44.27251 | 37981 ft | 486 kts | 304° |
| 2026-05-07 23:55 | 27.32015 | 44.21992 | 37983 ft | 486 kts | 304° |
| 2026-05-07 23:55 | 27.36913 | 44.16721 | 37984 ft | 487 kts | 304° |
| 2026-05-07 23:56 | 27.41804 | 44.11449 | 37980 ft | 487 kts | 303° |
| 2026-05-07 23:56 | 27.46699 | 44.06166 | 37986 ft | 488 kts | 303° |
| 2026-05-07 23:57 | 27.51560 | 44.00915 | 37987 ft | 487 kts | 303° |
| 2026-05-07 23:57 | 27.56458 | 43.95616 | 37986 ft | 487 kts | 303° |
| 2026-05-07 23:58 | 27.61344 | 43.90325 | 37981 ft | 486 kts | 303° |
| 2026-05-07 23:58 | 27.66221 | 43.85032 | 37980 ft | 486 kts | 303° |
| 2026-05-07 23:59 | 27.71096 | 43.79738 | 37982 ft | 486 kts | 303° |
| 2026-05-07 23:59 | 27.75966 | 43.74441 | 37979 ft | 485 kts | 303° |
| 2026-05-08 00:00 | 27.80820 | 43.69156 | 37980 ft | 484 kts | 302° |
| 2026-05-08 00:00 | 27.85601 | 43.63836 | 37990 ft | 477 kts | 300° |
| 2026-05-08 00:01 | 27.89407 | 43.59236 | 37985 ft | 478 kts | 300° |
| 2026-05-08 00:01 | 27.93966 | 43.53755 | 37984 ft | 479 kts | 300° |
| 2026-05-08 00:02 | 27.98483 | 43.48302 | 37991 ft | 478 kts | 300° |
| 2026-05-08 00:02 | 28.03032 | 43.42808 | 37982 ft | 478 kts | 300° |
| 2026-05-08 00:03 | 28.07571 | 43.37320 | 37995 ft | 477 kts | 300° |
| 2026-05-08 00:03 | 28.12109 | 43.31821 | 38000 ft | 478 kts | 300° |
| 2026-05-08 00:04 | 28.16646 | 43.26322 | 38008 ft | 478 kts | 300° |
| 2026-05-08 00:04 | 28.21183 | 43.20810 | 38008 ft | 478 kts | 300° |
| 2026-05-08 00:05 | 28.25721 | 43.15294 | 38011 ft | 478 kts | 300° |
| 2026-05-08 00:05 | 28.30258 | 43.09768 | 38014 ft | 479 kts | 300° |
| 2026-05-08 00:06 | 28.34794 | 43.04241 | 38012 ft | 478 kts | 300° |
| 2026-05-08 00:06 | 28.39328 | 42.98702 | 38022 ft | 480 kts | 300° |
| 2026-05-08 00:07 | 28.43883 | 42.93135 | 38024 ft | 481 kts | 300° |
| 2026-05-08 00:07 | 28.48449 | 42.87545 | 38027 ft | 483 kts | 300° |
| 2026-05-08 00:08 | 28.52993 | 42.81977 | 38026 ft | 484 kts | 300° |
| 2026-05-08 00:08 | 28.57575 | 42.76352 | 38030 ft | 485 kts | 300° |
| 2026-05-08 00:09 | 28.62177 | 42.70695 | 38028 ft | 486 kts | 300° |
| 2026-05-08 00:09 | 28.66780 | 42.65029 | 38028 ft | 487 kts | 300° |
| 2026-05-08 00:10 | 28.71386 | 42.59349 | 38026 ft | 488 kts | 301° |
| 2026-05-08 00:10 | 28.75997 | 42.53656 | 38030 ft | 490 kts | 301° |
| 2026-05-08 00:11 | 28.80590 | 42.47979 | 38026 ft | 490 kts | 301° |
| 2026-05-08 00:11 | 28.85211 | 42.42257 | 38030 ft | 490 kts | 301° |
| 2026-05-08 00:12 | 28.89837 | 42.36521 | 38037 ft | 491 kts | 301° |
| 2026-05-08 00:12 | 28.94467 | 42.30773 | 38035 ft | 492 kts | 301° |
| 2026-05-08 00:13 | 28.99096 | 42.25018 | 38033 ft | 492 kts | 301° |
| 2026-05-08 00:13 | 29.03759 | 42.19211 | 38025 ft | 492 kts | 301° |
| 2026-05-08 00:14 | 29.08351 | 42.13484 | 38038 ft | 492 kts | 301° |
| 2026-05-08 00:14 | 29.12975 | 42.07710 | 38043 ft | 492 kts | 301° |
| 2026-05-08 00:15 | 29.17597 | 42.01928 | 38046 ft | 492 kts | 302° |
| 2026-05-08 00:15 | 29.22222 | 41.96136 | 38049 ft | 492 kts | 302° |
| 2026-05-08 00:16 | 29.26834 | 41.90352 | 38049 ft | 492 kts | 302° |
| 2026-05-08 00:16 | 29.31445 | 41.84560 | 38057 ft | 492 kts | 302° |
| 2026-05-08 00:17 | 29.36029 | 41.78793 | 38057 ft | 492 kts | 302° |
| 2026-05-08 00:17 | 29.40644 | 41.72981 | 38058 ft | 492 kts | 302° |
| 2026-05-08 00:18 | 29.45256 | 41.67161 | 38058 ft | 493 kts | 302° |
| 2026-05-08 00:18 | 29.49872 | 41.61330 | 38071 ft | 493 kts | 302° |
| 2026-05-08 00:19 | 29.54465 | 41.55519 | 38072 ft | 493 kts | 302° |
| 2026-05-08 00:19 | 29.59070 | 41.49683 | 38072 ft | 493 kts | 302° |
| 2026-05-08 00:20 | 29.63686 | 41.43825 | 38067 ft | 494 kts | 302° |
| 2026-05-08 00:20 | 29.68264 | 41.38008 | 38073 ft | 494 kts | 302° |
| 2026-05-08 00:21 | 29.72870 | 41.32147 | 38076 ft | 493 kts | 302° |
| 2026-05-08 00:21 | 29.77958 | 41.26699 | 38079 ft | 501 kts | 308° |
| 2026-05-08 00:22 | 29.83159 | 41.21354 | 38078 ft | 500 kts | 308° |
| 2026-05-08 00:22 | 29.88352 | 41.16023 | 38074 ft | 500 kts | 308° |
| 2026-05-08 00:23 | 29.93571 | 41.10651 | 38075 ft | 499 kts | 308° |
| 2026-05-08 00:23 | 29.98739 | 41.05326 | 38076 ft | 498 kts | 309° |
| 2026-05-08 00:24 | 30.03902 | 40.99998 | 38076 ft | 497 kts | 309° |
| 2026-05-08 00:24 | 30.09053 | 40.94675 | 38079 ft | 497 kts | 309° |
| 2026-05-08 00:25 | 30.14201 | 40.89346 | 38080 ft | 497 kts | 309° |
| 2026-05-08 00:25 | 30.19347 | 40.84013 | 38074 ft | 496 kts | 309° |
| 2026-05-08 00:26 | 30.24485 | 40.78680 | 38068 ft | 496 kts | 309° |
| 2026-05-08 00:26 | 30.29645 | 40.73316 | 38079 ft | 495 kts | 310° |
| 2026-05-08 00:27 | 30.34758 | 40.67993 | 38082 ft | 495 kts | 310° |
| 2026-05-08 00:27 | 30.39911 | 40.62623 | 38079 ft | 495 kts | 310° |
| 2026-05-08 00:28 | 30.45100 | 40.57347 | 38080 ft | 495 kts | 311° |
| 2026-05-08 00:28 | 30.50252 | 40.52055 | 38081 ft | 494 kts | 311° |
| 2026-05-08 00:29 | 30.55403 | 40.46771 | 38076 ft | 494 kts | 311° |
| 2026-05-08 00:29 | 30.60550 | 40.41484 | 38082 ft | 493 kts | 311° |
| 2026-05-08 00:30 | 30.65685 | 40.36196 | 38069 ft | 492 kts | 312° |
| 2026-05-08 00:30 | 30.70807 | 40.30919 | 38072 ft | 492 kts | 312° |
| 2026-05-08 00:31 | 30.75921 | 40.25638 | 38077 ft | 491 kts | 312° |
| 2026-05-08 00:31 | 30.81036 | 40.20351 | 38078 ft | 491 kts | 312° |
| 2026-05-08 00:32 | 30.86132 | 40.15074 | 38083 ft | 490 kts | 313° |
| 2026-05-08 00:32 | 30.91223 | 40.09795 | 38082 ft | 490 kts | 313° |
| 2026-05-08 00:33 | 30.96311 | 40.04511 | 38079 ft | 489 kts | 313° |
| 2026-05-08 00:33 | 31.01391 | 39.99229 | 38077 ft | 489 kts | 313° |
| 2026-05-08 00:34 | 31.06460 | 39.93948 | 38080 ft | 489 kts | 313° |
| 2026-05-08 00:34 | 31.11550 | 39.88640 | 38073 ft | 489 kts | 313° |
| 2026-05-08 00:35 | 31.16610 | 39.83354 | 38078 ft | 488 kts | 313° |
| 2026-05-08 00:35 | 31.21641 | 39.78090 | 38073 ft | 488 kts | 313° |
| 2026-05-08 00:36 | 31.26701 | 39.72789 | 38071 ft | 489 kts | 313° |
| 2026-05-08 00:36 | 31.31757 | 39.67482 | 38074 ft | 488 kts | 313° |
| 2026-05-08 00:37 | 31.35965 | 39.63061 | 38074 ft | 488 kts | 313° |
| 2026-05-08 00:38 | 31.43520 | 39.55108 | 38077 ft | 486 kts | 313° |
| 2026-05-08 00:38 | 31.48546 | 39.49807 | 38082 ft | 486 kts | 313° |
| 2026-05-08 00:39 | 31.53566 | 39.44505 | 38077 ft | 485 kts | 314° |
| 2026-05-08 00:39 | 31.58582 | 39.39198 | 38080 ft | 485 kts | 314° |
| 2026-05-08 00:40 | 31.63585 | 39.33897 | 38073 ft | 484 kts | 314° |
| 2026-05-08 00:40 | 31.68582 | 39.28595 | 38080 ft | 483 kts | 314° |
| 2026-05-08 00:41 | 31.73565 | 39.23299 | 38074 ft | 483 kts | 314° |
| 2026-05-08 00:41 | 31.78519 | 39.18042 | 38081 ft | 482 kts | 316° |
| 2026-05-08 00:41 | 31.81264 | 39.15748 | 38083 ft | 488 kts | 327° |
| 2026-05-08 00:42 | 31.84286 | 39.13905 | 38068 ft | 490 kts | 329° |
| 2026-05-08 00:42 | 31.90387 | 39.10314 | 38074 ft | 490 kts | 329° |
| 2026-05-08 00:43 | 31.96480 | 39.06713 | 38084 ft | 490 kts | 329° |
| 2026-05-08 00:43 | 32.02575 | 39.03108 | 38078 ft | 490 kts | 329° |
| 2026-05-08 00:44 | 32.08665 | 38.99519 | 38082 ft | 490 kts | 329° |
| 2026-05-08 00:44 | 32.14754 | 38.95928 | 38083 ft | 489 kts | 329° |
| 2026-05-08 00:45 | 32.20842 | 38.92330 | 38080 ft | 488 kts | 329° |
| 2026-05-08 00:45 | 32.26919 | 38.88734 | 38080 ft | 487 kts | 329° |
| 2026-05-08 00:46 | 32.32925 | 38.85174 | 38077 ft | 486 kts | 329° |
| 2026-05-08 00:46 | 32.35983 | 38.83360 | 38212 ft | 484 kts | 329° |
| 2026-05-08 00:46 | 32.38976 | 38.81583 | 38576 ft | 481 kts | 329° |
| 2026-05-08 00:46 | 32.41969 | 38.79804 | 38825 ft | 480 kts | 329° |
| 2026-05-08 00:47 | 32.44918 | 38.78050 | 38998 ft | 480 kts | 329° |
| 2026-05-08 00:47 | 32.47907 | 38.76270 | 39179 ft | 480 kts | 329° |
| 2026-05-08 00:47 | 32.50897 | 38.74491 | 39357 ft | 480 kts | 329° |
| 2026-05-08 00:47 | 32.53887 | 38.72709 | 39540 ft | 480 kts | 329° |
| 2026-05-08 00:48 | 32.56866 | 38.70931 | 39701 ft | 480 kts | 329° |
| 2026-05-08 00:48 | 32.59841 | 38.69155 | 39865 ft | 480 kts | 329° |
| 2026-05-08 00:48 | 32.62831 | 38.67370 | 39998 ft | 480 kts | 329° |
| 2026-05-08 00:49 | 32.68830 | 38.63785 | 40067 ft | 484 kts | 329° |
| 2026-05-08 00:49 | 32.74829 | 38.60196 | 40061 ft | 481 kts | 329° |
| 2026-05-08 00:50 | 32.80784 | 38.56625 | 40062 ft | 478 kts | 329° |
| 2026-05-08 00:50 | 32.86724 | 38.53060 | 40064 ft | 478 kts | 329° |
| 2026-05-08 00:51 | 32.92659 | 38.49492 | 40062 ft | 478 kts | 329° |
| 2026-05-08 00:51 | 32.98593 | 38.45918 | 40069 ft | 478 kts | 329° |
| 2026-05-08 00:52 | 33.04489 | 38.42360 | 40072 ft | 478 kts | 329° |
| 2026-05-08 00:52 | 33.10420 | 38.38776 | 40074 ft | 477 kts | 329° |
| 2026-05-08 00:53 | 33.16347 | 38.35191 | 40078 ft | 478 kts | 329° |
| 2026-05-08 00:53 | 33.22281 | 38.31607 | 40082 ft | 478 kts | 329° |
| 2026-05-08 00:54 | 33.28206 | 38.27989 | 40086 ft | 478 kts | 329° |
| 2026-05-08 00:54 | 33.34135 | 38.24372 | 40086 ft | 478 kts | 329° |
| 2026-05-08 00:55 | 33.40063 | 38.20747 | 40091 ft | 477 kts | 329° |
| 2026-05-08 00:55 | 33.45979 | 38.17125 | 40093 ft | 477 kts | 329° |
| 2026-05-08 00:56 | 33.51898 | 38.13537 | 40097 ft | 477 kts | 329° |
| 2026-05-08 00:56 | 33.57827 | 38.09933 | 40103 ft | 477 kts | 329° |
| 2026-05-08 00:57 | 33.63757 | 38.06322 | 40101 ft | 477 kts | 329° |
| 2026-05-08 00:57 | 33.69679 | 38.02714 | 40104 ft | 475 kts | 329° |
| 2026-05-08 00:58 | 33.75566 | 37.99118 | 40111 ft | 474 kts | 329° |
| 2026-05-08 00:58 | 33.81404 | 37.95548 | 40107 ft | 474 kts | 329° |
| 2026-05-08 00:59 | 33.86846 | 37.91239 | 40138 ft | 466 kts | 312° |
| 2026-05-08 00:59 | 33.90806 | 37.85116 | 40112 ft | 460 kts | 300° |
| 2026-05-08 01:00 | 33.94196 | 37.78652 | 40123 ft | 460 kts | 300° |
| 2026-05-08 01:00 | 33.97599 | 37.72137 | 40125 ft | 459 kts | 300° |
| 2026-05-08 01:01 | 34.00997 | 37.65631 | 40123 ft | 458 kts | 300° |
| 2026-05-08 01:01 | 34.04410 | 37.59076 | 40130 ft | 459 kts | 300° |
| 2026-05-08 01:02 | 34.07784 | 37.52590 | 40132 ft | 459 kts | 300° |
| 2026-05-08 01:02 | 34.11174 | 37.46059 | 40138 ft | 458 kts | 300° |
| 2026-05-08 01:03 | 34.14551 | 37.39541 | 40139 ft | 457 kts | 300° |
| 2026-05-08 01:03 | 34.17919 | 37.33028 | 40146 ft | 457 kts | 300° |
| 2026-05-08 01:04 | 34.21359 | 37.26569 | 40148 ft | 458 kts | 307° |
| 2026-05-08 01:04 | 34.25697 | 37.20900 | 40146 ft | 460 kts | 311° |
| 2026-05-08 01:05 | 34.30118 | 37.15308 | 40143 ft | 460 kts | 311° |
| 2026-05-08 01:05 | 34.34508 | 37.09741 | 40145 ft | 460 kts | 311° |
| 2026-05-08 01:06 | 34.38915 | 37.04145 | 40149 ft | 459 kts | 311° |
| 2026-05-08 01:06 | 34.43324 | 36.98537 | 40151 ft | 459 kts | 311° |
| 2026-05-08 01:07 | 34.47733 | 36.92919 | 40147 ft | 460 kts | 311° |
| 2026-05-08 01:07 | 34.52143 | 36.87292 | 40149 ft | 459 kts | 311° |
| 2026-05-08 01:08 | 34.56537 | 36.81675 | 40141 ft | 459 kts | 311° |
| 2026-05-08 01:08 | 34.60924 | 36.76059 | 40140 ft | 458 kts | 311° |
| 2026-05-08 01:09 | 34.65300 | 36.70447 | 40142 ft | 457 kts | 311° |
| 2026-05-08 01:09 | 34.69671 | 36.64832 | 40139 ft | 457 kts | 311° |
| 2026-05-08 01:10 | 34.74035 | 36.59216 | 40134 ft | 457 kts | 311° |
| 2026-05-08 01:10 | 34.78394 | 36.53599 | 40133 ft | 457 kts | 311° |
| 2026-05-08 01:11 | 34.82757 | 36.47967 | 40131 ft | 456 kts | 311° |
| 2026-05-08 01:11 | 34.87104 | 36.42346 | 40123 ft | 456 kts | 311° |
| 2026-05-08 01:12 | 34.91446 | 36.36722 | 40120 ft | 455 kts | 311° |
| 2026-05-08 01:12 | 34.95773 | 36.31107 | 40120 ft | 454 kts | 311° |
| 2026-05-08 01:13 | 35.00098 | 36.25487 | 40110 ft | 455 kts | 311° |
| 2026-05-08 01:13 | 35.04393 | 36.19897 | 40116 ft | 454 kts | 311° |
| 2026-05-08 01:14 | 35.08750 | 36.14216 | 40105 ft | 455 kts | 311° |
| 2026-05-08 01:14 | 35.13043 | 36.08610 | 40108 ft | 454 kts | 311° |
| 2026-05-08 01:15 | 35.17307 | 36.02922 | 40111 ft | 453 kts | 305° |
| 2026-05-08 01:15 | 35.20321 | 35.96203 | 40110 ft | 453 kts | 288° |
| 2026-05-08 01:16 | 35.21402 | 35.88629 | 40108 ft | 456 kts | 270° |
| 2026-05-08 01:16 | 35.20599 | 35.80917 | 40091 ft | 459 kts | 262° |
| 2026-05-08 01:17 | 35.20249 | 35.73196 | 40102 ft | 455 kts | 279° |
| 2026-05-08 01:17 | 35.21930 | 35.65782 | 40102 ft | 453 kts | 297° |
| 2026-05-08 01:18 | 35.24364 | 35.60100 | 40090 ft | 454 kts | 298° |
| 2026-05-08 01:18 | 35.27323 | 35.53279 | 40089 ft | 453 kts | 298° |
| 2026-05-08 01:19 | 35.30750 | 35.45357 | 40089 ft | 452 kts | 298° |
| 2026-05-08 01:19 | 35.33213 | 35.39654 | 40091 ft | 452 kts | 298° |
| 2026-05-08 01:20 | 35.36135 | 35.32874 | 40096 ft | 453 kts | 298° |
| 2026-05-08 01:20 | 35.39075 | 35.26039 | 40095 ft | 453 kts | 298° |
| 2026-05-08 01:21 | 35.42010 | 35.19203 | 40097 ft | 453 kts | 298° |
| 2026-05-08 01:21 | 35.44941 | 35.12360 | 40102 ft | 453 kts | 298° |
| 2026-05-08 01:22 | 35.47873 | 35.05504 | 40105 ft | 453 kts | 298° |
| 2026-05-08 01:22 | 35.50791 | 34.98665 | 40108 ft | 452 kts | 298° |
| 2026-05-08 01:23 | 35.53704 | 34.91822 | 40113 ft | 452 kts | 298° |
| 2026-05-08 01:23 | 35.56609 | 34.84984 | 40107 ft | 452 kts | 298° |
| 2026-05-08 01:24 | 35.59495 | 34.78180 | 40110 ft | 451 kts | 298° |
| 2026-05-08 01:24 | 35.62389 | 34.71340 | 40108 ft | 451 kts | 298° |
| 2026-05-08 01:25 | 35.65276 | 34.64504 | 40105 ft | 450 kts | 298° |
| 2026-05-08 01:25 | 35.68157 | 34.57667 | 40107 ft | 450 kts | 298° |
| 2026-05-08 01:26 | 35.71038 | 34.50817 | 40111 ft | 451 kts | 298° |
| 2026-05-08 01:26 | 35.73916 | 34.43959 | 40110 ft | 451 kts | 298° |
| 2026-05-08 01:27 | 35.76791 | 34.37094 | 40106 ft | 451 kts | 298° |
| 2026-05-08 01:27 | 35.79643 | 34.30270 | 40109 ft | 450 kts | 298° |
| 2026-05-08 01:28 | 35.82506 | 34.23407 | 40107 ft | 450 kts | 298° |
| 2026-05-08 01:28 | 35.85366 | 34.16534 | 40109 ft | 450 kts | 298° |
| 2026-05-08 01:29 | 35.88221 | 34.09660 | 40111 ft | 450 kts | 298° |
| 2026-05-08 01:29 | 35.91490 | 34.03138 | 40124 ft | 447 kts | 312° |
| 2026-05-08 01:30 | 35.96170 | 33.98142 | 40123 ft | 447 kts | 328° |
| 2026-05-08 01:30 | 36.01476 | 33.94125 | 40109 ft | 447 kts | 328° |
| 2026-05-08 01:31 | 36.06746 | 33.90145 | 40113 ft | 446 kts | 328° |
| 2026-05-08 01:31 | 36.12044 | 33.86131 | 40112 ft | 446 kts | 327° |
| 2026-05-08 01:32 | 36.17334 | 33.82118 | 40114 ft | 446 kts | 327° |
| 2026-05-08 01:32 | 36.22621 | 33.78101 | 40121 ft | 446 kts | 327° |
| 2026-05-08 01:33 | 36.27904 | 33.74081 | 40129 ft | 445 kts | 327° |
| 2026-05-08 01:33 | 36.33180 | 33.70058 | 40133 ft | 445 kts | 327° |
| 2026-05-08 01:34 | 36.38454 | 33.66030 | 40143 ft | 445 kts | 327° |
| 2026-05-08 01:34 | 36.43731 | 33.61992 | 40149 ft | 445 kts | 327° |
| 2026-05-08 01:35 | 36.48997 | 33.57958 | 40150 ft | 444 kts | 327° |
| 2026-05-08 01:35 | 36.54259 | 33.53920 | 40160 ft | 445 kts | 327° |
| 2026-05-08 01:36 | 36.59498 | 33.49892 | 40164 ft | 445 kts | 327° |
| 2026-05-08 01:36 | 36.64761 | 33.45840 | 40174 ft | 445 kts | 327° |
| 2026-05-08 01:37 | 36.70026 | 33.41780 | 40177 ft | 444 kts | 327° |
| 2026-05-08 01:37 | 36.75284 | 33.37718 | 40185 ft | 444 kts | 327° |
| 2026-05-08 01:38 | 36.80531 | 33.33658 | 40180 ft | 444 kts | 327° |
| 2026-05-08 01:38 | 36.85690 | 33.29505 | 40210 ft | 443 kts | 320° |
| 2026-05-08 01:39 | 36.90055 | 33.24077 | 40193 ft | 443 kts | 313° |
| 2026-05-08 01:39 | 36.94234 | 33.18413 | 40199 ft | 443 kts | 313° |
| 2026-05-08 01:40 | 36.98398 | 33.12727 | 40211 ft | 443 kts | 313° |
| 2026-05-08 01:40 | 37.02567 | 33.07042 | 40209 ft | 443 kts | 313° |
| 2026-05-08 01:41 | 37.06725 | 33.01353 | 40215 ft | 442 kts | 313° |
| 2026-05-08 01:41 | 37.10854 | 32.95698 | 40218 ft | 442 kts | 313° |
| 2026-05-08 01:42 | 37.15026 | 32.89973 | 40220 ft | 441 kts | 313° |
| 2026-05-08 01:42 | 37.19130 | 32.84331 | 40223 ft | 441 kts | 313° |
| 2026-05-08 01:43 | 37.23261 | 32.78642 | 40224 ft | 440 kts | 313° |
| 2026-05-08 01:43 | 37.27379 | 32.72962 | 40232 ft | 440 kts | 313° |
| 2026-05-08 01:44 | 37.31488 | 32.67283 | 40230 ft | 439 kts | 313° |
| 2026-05-08 01:44 | 37.35593 | 32.61601 | 40239 ft | 438 kts | 313° |
| 2026-05-08 01:45 | 37.39683 | 32.55929 | 40232 ft | 438 kts | 313° |
| 2026-05-08 01:45 | 37.43772 | 32.50248 | 40229 ft | 437 kts | 313° |
| 2026-05-08 01:46 | 37.47848 | 32.44577 | 40228 ft | 436 kts | 313° |
| 2026-05-08 01:46 | 37.51916 | 32.38905 | 40227 ft | 436 kts | 313° |
| 2026-05-08 01:47 | 37.55972 | 32.33241 | 40224 ft | 435 kts | 313° |
| 2026-05-08 01:47 | 37.59998 | 32.27609 | 40218 ft | 434 kts | 313° |
| 2026-05-08 01:48 | 37.66051 | 32.19122 | 40211 ft | 434 kts | 313° |
| 2026-05-08 01:48 | 37.70084 | 32.13472 | 40205 ft | 432 kts | 313° |
| 2026-05-08 01:49 | 37.74113 | 32.07813 | 40210 ft | 433 kts | 313° |
| 2026-05-08 01:49 | 37.78137 | 32.02152 | 40214 ft | 432 kts | 313° |
| 2026-05-08 01:50 | 37.82158 | 31.96485 | 40215 ft | 433 kts | 313° |
| 2026-05-08 01:50 | 37.86179 | 31.90810 | 40212 ft | 433 kts | 313° |
| 2026-05-08 01:51 | 37.90195 | 31.85129 | 40220 ft | 432 kts | 313° |
| 2026-05-08 01:51 | 37.94175 | 31.79490 | 40218 ft | 431 kts | 313° |
| 2026-05-08 01:52 | 37.98165 | 31.73828 | 40219 ft | 430 kts | 312° |
| 2026-05-08 01:52 | 38.02150 | 31.68162 | 40224 ft | 430 kts | 312° |
| 2026-05-08 01:53 | 38.06127 | 31.62498 | 40220 ft | 430 kts | 312° |
| 2026-05-08 01:53 | 38.10101 | 31.56826 | 40233 ft | 429 kts | 312° |
| 2026-05-08 01:54 | 38.14065 | 31.51149 | 40230 ft | 429 kts | 312° |
| 2026-05-08 01:54 | 38.18029 | 31.45464 | 40237 ft | 429 kts | 312° |
| 2026-05-08 01:55 | 38.21948 | 31.39833 | 40234 ft | 427 kts | 312° |
| 2026-05-08 01:55 | 38.25883 | 31.34169 | 40222 ft | 427 kts | 312° |
| 2026-05-08 01:56 | 38.29814 | 31.28502 | 40239 ft | 426 kts | 312° |
| 2026-05-08 01:56 | 38.33729 | 31.22845 | 40227 ft | 425 kts | 312° |
| 2026-05-08 01:57 | 38.37626 | 31.17207 | 40241 ft | 424 kts | 312° |
| 2026-05-08 01:57 | 38.41525 | 31.11555 | 40241 ft | 424 kts | 312° |
| 2026-05-08 01:58 | 38.45424 | 31.05893 | 40245 ft | 424 kts | 312° |
| 2026-05-08 01:58 | 38.49615 | 31.00645 | 40262 ft | 423 kts | 323° |
| 2026-05-08 01:59 | 38.54443 | 30.96357 | 40246 ft | 423 kts | 324° |
| 2026-05-08 01:59 | 38.59248 | 30.92093 | 40250 ft | 423 kts | 324° |
| 2026-05-08 02:00 | 38.64095 | 30.87808 | 40250 ft | 422 kts | 324° |
| 2026-05-08 02:00 | 38.68919 | 30.83523 | 40239 ft | 421 kts | 324° |
| 2026-05-08 02:01 | 38.73729 | 30.79250 | 40243 ft | 420 kts | 324° |
| 2026-05-08 02:01 | 38.78539 | 30.74966 | 40246 ft | 421 kts | 324° |
| 2026-05-08 02:02 | 38.83368 | 30.70660 | 40250 ft | 423 kts | 324° |
| 2026-05-08 02:02 | 38.88481 | 30.66904 | 40232 ft | 425 kts | 331° |
| 2026-05-08 02:03 | 38.92864 | 30.64046 | 40231 ft | 425 kts | 330° |
| 2026-05-08 02:03 | 38.98142 | 30.60610 | 40233 ft | 425 kts | 331° |
| 2026-05-08 02:04 | 39.04282 | 30.56606 | 40233 ft | 426 kts | 330° |
| 2026-05-08 02:04 | 39.09563 | 30.53156 | 40230 ft | 426 kts | 330° |
| 2026-05-08 02:05 | 39.13988 | 30.50260 | 40227 ft | 426 kts | 330° |
| 2026-05-08 02:05 | 39.19266 | 30.46800 | 40232 ft | 426 kts | 330° |
| 2026-05-08 02:06 | 39.24520 | 30.43351 | 40235 ft | 427 kts | 330° |
| 2026-05-08 02:06 | 39.29813 | 30.39870 | 40238 ft | 427 kts | 330° |
| 2026-05-08 02:07 | 39.35109 | 30.36381 | 40235 ft | 428 kts | 330° |
| 2026-05-08 02:07 | 39.40416 | 30.32879 | 40233 ft | 428 kts | 330° |
| 2026-05-08 02:08 | 39.45736 | 30.29362 | 40238 ft | 429 kts | 330° |
| 2026-05-08 02:08 | 39.51115 | 30.25956 | 40240 ft | 432 kts | 335° |
| 2026-05-08 02:09 | 39.56681 | 30.23000 | 40225 ft | 432 kts | 334° |
| 2026-05-08 02:09 | 39.62174 | 30.20063 | 40225 ft | 433 kts | 334° |
| 2026-05-08 02:10 | 39.67756 | 30.17086 | 40225 ft | 433 kts | 334° |
| 2026-05-08 02:10 | 39.73335 | 30.14097 | 40217 ft | 434 kts | 334° |
| 2026-05-08 02:11 | 39.78928 | 30.11100 | 40216 ft | 435 kts | 334° |
| 2026-05-08 02:11 | 39.84526 | 30.08091 | 40211 ft | 435 kts | 334° |
| 2026-05-08 02:12 | 39.90126 | 30.05079 | 40205 ft | 436 kts | 334° |
| 2026-05-08 02:12 | 39.95727 | 30.02059 | 40199 ft | 436 kts | 334° |
| 2026-05-08 02:13 | 40.01340 | 29.99028 | 40191 ft | 437 kts | 334° |
| 2026-05-08 02:13 | 40.06963 | 29.95987 | 40182 ft | 438 kts | 334° |
| 2026-05-08 02:14 | 40.12591 | 29.92937 | 40178 ft | 438 kts | 334° |
| 2026-05-08 02:14 | 40.18223 | 29.89879 | 40170 ft | 439 kts | 334° |
| 2026-05-08 02:15 | 40.23872 | 29.86807 | 40166 ft | 440 kts | 334° |
| 2026-05-08 02:15 | 40.29525 | 29.83726 | 40160 ft | 441 kts | 334° |
| 2026-05-08 02:16 | 40.35189 | 29.80635 | 40160 ft | 441 kts | 334° |
| 2026-05-08 02:16 | 40.40853 | 29.77538 | 40155 ft | 441 kts | 334° |
| 2026-05-08 02:17 | 40.46497 | 29.74446 | 40151 ft | 442 kts | 334° |
| 2026-05-08 02:17 | 40.52172 | 29.71331 | 40148 ft | 442 kts | 334° |
| 2026-05-08 02:18 | 40.57794 | 29.68239 | 40134 ft | 442 kts | 334° |
| 2026-05-08 02:18 | 40.63476 | 29.65109 | 40139 ft | 443 kts | 334° |
| 2026-05-08 02:19 | 40.68700 | 29.60946 | 40143 ft | 439 kts | 319° |
| 2026-05-08 02:19 | 40.73484 | 29.55918 | 40123 ft | 439 kts | 320° |
| 2026-05-08 02:20 | 40.78257 | 29.50884 | 40118 ft | 439 kts | 320° |
| 2026-05-08 02:20 | 40.83040 | 29.45833 | 40116 ft | 440 kts | 320° |
| 2026-05-08 02:21 | 40.87817 | 29.40778 | 40114 ft | 440 kts | 320° |
| 2026-05-08 02:21 | 40.92597 | 29.35709 | 40113 ft | 441 kts | 319° |
| 2026-05-08 02:22 | 40.97382 | 29.30626 | 40111 ft | 441 kts | 319° |
| 2026-05-08 02:22 | 41.02137 | 29.25566 | 40111 ft | 441 kts | 319° |
| 2026-05-08 02:23 | 41.06924 | 29.20461 | 40115 ft | 442 kts | 319° |
| 2026-05-08 02:23 | 41.11660 | 29.15274 | 40125 ft | 441 kts | 313° |
| 2026-05-08 02:24 | 41.15410 | 29.08878 | 40104 ft | 441 kts | 303° |
| 2026-05-08 02:24 | 41.18812 | 29.02105 | 40113 ft | 441 kts | 303° |
| 2026-05-08 02:25 | 41.22204 | 28.95313 | 40109 ft | 440 kts | 303° |
| 2026-05-08 02:25 | 41.25595 | 28.88519 | 40112 ft | 440 kts | 303° |
| 2026-05-08 02:26 | 41.28973 | 28.81730 | 40113 ft | 441 kts | 303° |
| 2026-05-08 02:26 | 41.32351 | 28.74930 | 40113 ft | 440 kts | 303° |
| 2026-05-08 02:27 | 41.35724 | 28.68124 | 40111 ft | 440 kts | 303° |
| 2026-05-08 02:27 | 41.36292 | 28.66974 | 40109 ft | 440 kts | 303° |
| 2026-05-08 02:28 | 41.36838 | 28.65872 | 40107 ft | 440 kts | 303° |